sensor_id;sensor_type;location;lat;lon;timestamp;P1;durP1;ratioP1;P2;durP2;ratioP2
62268;SDS011;56517;51.634;5.566;2022-09-09T00:01:03;12.30;;;6.28;;
62268;SDS011;56517;51.634;5.566;2022-09-09T00:06:08;10.02;;;6.30;;
62268;SDS011;56517;51.634;5.566;2022-09-09T00:11:12;9.43;;;5.47;;
62268;SDS011;56517;51.634;5.566;2022-09-09T00:16:19;10.75;;;5.70;;
62268;SDS011;56517;51.634;5.566;2022-09-09T00:21:21;12.05;;;6.68;;
62268;SDS011;56517;51.634;5.566;2022-09-09T00:26:27;8.40;;;6.03;;
62268;SDS011;56517;51.634;5.566;2022-09-09T00:31:32;12.23;;;6.25;;
62268;SDS011;56517;51.634;5.566;2022-09-09T00:36:33;12.40;;;6.18;;
62268;SDS011;56517;51.634;5.566;2022-09-09T00:41:38;11.18;;;6.20;;
62268;SDS011;56517;51.634;5.566;2022-09-09T00:46:47;8.98;;;6.25;;
62268;SDS011;56517;51.634;5.566;2022-09-09T00:51:52;10.30;;;5.97;;
62268;SDS011;56517;51.634;5.566;2022-09-09T00:56:59;11.98;;;6.30;;
62268;SDS011;56517;51.634;5.566;2022-09-09T01:02:07;9.85;;;6.60;;
62268;SDS011;56517;51.634;5.566;2022-09-09T01:07:14;10.10;;;6.60;;
62268;SDS011;56517;51.634;5.566;2022-09-09T01:12:16;14.25;;;6.47;;
62268;SDS011;56517;51.634;5.566;2022-09-09T01:17:19;10.95;;;6.70;;
62268;SDS011;56517;51.634;5.566;2022-09-09T01:22:22;9.90;;;5.78;;
62268;SDS011;56517;51.634;5.566;2022-09-09T01:27:27;13.60;;;6.93;;
62268;SDS011;56517;51.634;5.566;2022-09-09T01:32:38;11.60;;;7.07;;
62268;SDS011;56517;51.634;5.566;2022-09-09T01:37:40;10.40;;;6.60;;
62268;SDS011;56517;51.634;5.566;2022-09-09T01:42:42;10.48;;;6.13;;
62268;SDS011;56517;51.634;5.566;2022-09-09T01:47:42;10.82;;;6.47;;
62268;SDS011;56517;51.634;5.566;2022-09-09T01:52:43;10.95;;;6.38;;
62268;SDS011;56517;51.634;5.566;2022-09-09T01:57:47;11.25;;;6.75;;
62268;SDS011;56517;51.634;5.566;2022-09-09T02:02:52;11.70;;;6.63;;
62268;SDS011;56517;51.634;5.566;2022-09-09T02:07:58;9.73;;;6.38;;
62268;SDS011;56517;51.634;5.566;2022-09-09T02:13:03;11.43;;;6.13;;
62268;SDS011;56517;51.634;5.566;2022-09-09T02:18:06;14.40;;;6.90;;
62268;SDS011;56517;51.634;5.566;2022-09-09T02:23:08;12.55;;;6.00;;
62268;SDS011;56517;51.634;5.566;2022-09-09T02:28:11;10.88;;;7.32;;
62268;SDS011;56517;51.634;5.566;2022-09-09T02:33:13;13.70;;;6.85;;
62268;SDS011;56517;51.634;5.566;2022-09-09T02:38:14;13.73;;;6.30;;
62268;SDS011;56517;51.634;5.566;2022-09-09T02:43:17;13.57;;;7.25;;
62268;SDS011;56517;51.634;5.566;2022-09-09T02:48:20;10.52;;;6.20;;
62268;SDS011;56517;51.634;5.566;2022-09-09T02:53:24;9.93;;;6.68;;
62268;SDS011;56517;51.634;5.566;2022-09-09T02:58:32;11.23;;;6.03;;
62268;SDS011;56517;51.634;5.566;2022-09-09T03:03:33;14.10;;;6.60;;
62268;SDS011;56517;51.634;5.566;2022-09-09T03:08:33;9.32;;;5.70;;
62268;SDS011;56517;51.634;5.566;2022-09-09T03:13:35;14.73;;;7.32;;
62268;SDS011;56517;51.634;5.566;2022-09-09T03:18:36;11.13;;;6.55;;
62268;SDS011;56517;51.634;5.566;2022-09-09T03:23:36;16.25;;;6.85;;
62268;SDS011;56517;51.634;5.566;2022-09-09T03:28:38;15.68;;;7.43;;
62268;SDS011;56517;51.634;5.566;2022-09-09T03:33:39;15.15;;;7.78;;
62268;SDS011;56517;51.634;5.566;2022-09-09T03:38:40;12.20;;;6.70;;
62268;SDS011;56517;51.634;5.566;2022-09-09T03:43:42;15.80;;;7.47;;
62268;SDS011;56517;51.634;5.566;2022-09-09T03:48:42;14.57;;;6.45;;
62268;SDS011;56517;51.634;5.566;2022-09-09T03:53:43;13.80;;;7.70;;
62268;SDS011;56517;51.634;5.566;2022-09-09T03:58:45;15.20;;;8.15;;
62268;SDS011;56517;51.634;5.566;2022-09-09T04:03:45;12.65;;;6.55;;
62268;SDS011;56517;51.634;5.566;2022-09-09T04:08:46;16.50;;;6.82;;
62268;SDS011;56517;51.634;5.566;2022-09-09T04:13:48;16.40;;;6.88;;
62268;SDS011;56517;51.634;5.566;2022-09-09T04:18:49;13.60;;;7.63;;
62268;SDS011;56517;51.634;5.566;2022-09-09T04:23:49;12.88;;;7.00;;
62268;SDS011;56517;51.634;5.566;2022-09-09T04:28:51;17.73;;;7.57;;
62268;SDS011;56517;51.634;5.566;2022-09-09T04:33:52;19.48;;;7.93;;
62268;SDS011;56517;51.634;5.566;2022-09-09T04:38:53;13.52;;;7.55;;
62268;SDS011;56517;51.634;5.566;2022-09-09T04:43:55;12.63;;;6.70;;
62268;SDS011;56517;51.634;5.566;2022-09-09T04:48:55;14.15;;;7.07;;
62268;SDS011;56517;51.634;5.566;2022-09-09T04:53:56;17.33;;;6.95;;
62268;SDS011;56517;51.634;5.566;2022-09-09T04:58:58;15.05;;;6.70;;
62268;SDS011;56517;51.634;5.566;2022-09-09T05:03:58;16.88;;;6.88;;
62268;SDS011;56517;51.634;5.566;2022-09-09T05:08:59;15.23;;;7.30;;
62268;SDS011;56517;51.634;5.566;2022-09-09T05:14:01;15.38;;;6.25;;
62268;SDS011;56517;51.634;5.566;2022-09-09T05:19:01;12.90;;;6.47;;
62268;SDS011;56517;51.634;5.566;2022-09-09T05:24:02;12.68;;;7.28;;
62268;SDS011;56517;51.634;5.566;2022-09-09T05:29:04;15.05;;;7.28;;
62268;SDS011;56517;51.634;5.566;2022-09-09T05:34:05;13.63;;;6.95;;
62268;SDS011;56517;51.634;5.566;2022-09-09T05:39:05;15.75;;;7.03;;
62268;SDS011;56517;51.634;5.566;2022-09-09T05:44:07;13.68;;;6.80;;
62268;SDS011;56517;51.634;5.566;2022-09-09T05:49:08;15.40;;;7.40;;
62268;SDS011;56517;51.634;5.566;2022-09-09T05:54:08;11.93;;;6.63;;
62268;SDS011;56517;51.634;5.566;2022-09-09T05:59:10;14.07;;;7.38;;
62268;SDS011;56517;51.634;5.566;2022-09-09T06:04:11;14.23;;;6.85;;
62268;SDS011;56517;51.634;5.566;2022-09-09T06:09:11;12.70;;;7.00;;
62268;SDS011;56517;51.634;5.566;2022-09-09T06:14:13;17.88;;;7.57;;
62268;SDS011;56517;51.634;5.566;2022-09-09T06:19:14;13.20;;;7.40;;
62268;SDS011;56517;51.634;5.566;2022-09-09T06:24:14;16.48;;;6.90;;
62268;SDS011;56517;51.634;5.566;2022-09-09T06:29:16;13.45;;;6.55;;
62268;SDS011;56517;51.634;5.566;2022-09-09T06:34:17;16.98;;;7.07;;
62268;SDS011;56517;51.634;5.566;2022-09-09T06:39:17;12.50;;;6.72;;
62268;SDS011;56517;51.634;5.566;2022-09-09T06:44:19;16.55;;;6.63;;
62268;SDS011;56517;51.634;5.566;2022-09-09T06:49:20;11.93;;;6.68;;
62268;SDS011;56517;51.634;5.566;2022-09-09T06:54:20;11.98;;;6.43;;
62268;SDS011;56517;51.634;5.566;2022-09-09T06:59:22;11.85;;;6.53;;
62268;SDS011;56517;51.634;5.566;2022-09-09T07:04:23;15.60;;;6.50;;
62268;SDS011;56517;51.634;5.566;2022-09-09T07:09:23;11.90;;;6.40;;
62268;SDS011;56517;51.634;5.566;2022-09-09T07:14:25;13.10;;;6.63;;
62268;SDS011;56517;51.634;5.566;2022-09-09T07:19:26;9.88;;;5.53;;
62268;SDS011;56517;51.634;5.566;2022-09-09T07:24:27;19.52;;;6.80;;
62268;SDS011;56517;51.634;5.566;2022-09-09T07:29:29;12.77;;;5.50;;
62268;SDS011;56517;51.634;5.566;2022-09-09T07:34:29;13.07;;;5.25;;
62268;SDS011;56517;51.634;5.566;2022-09-09T07:39:30;12.88;;;5.75;;
62268;SDS011;56517;51.634;5.566;2022-09-09T07:44:32;12.30;;;5.57;;
62268;SDS011;56517;51.634;5.566;2022-09-09T07:49:32;19.15;;;6.47;;
62268;SDS011;56517;51.634;5.566;2022-09-09T07:54:33;14.05;;;6.35;;
62268;SDS011;56517;51.634;5.566;2022-09-09T07:59:35;15.75;;;5.47;;
62268;SDS011;56517;51.634;5.566;2022-09-09T08:04:35;14.65;;;5.72;;
62268;SDS011;56517;51.634;5.566;2022-09-09T08:09:36;14.27;;;5.97;;
62268;SDS011;56517;51.634;5.566;2022-09-09T08:14:38;15.32;;;6.88;;
62268;SDS011;56517;51.634;5.566;2022-09-09T08:19:38;14.45;;;6.43;;
62268;SDS011;56517;51.634;5.566;2022-09-09T08:24:39;17.15;;;6.53;;
62268;SDS011;56517;51.634;5.566;2022-09-09T08:29:41;15.23;;;6.35;;
62268;SDS011;56517;51.634;5.566;2022-09-09T08:34:41;12.68;;;5.97;;
62268;SDS011;56517;51.634;5.566;2022-09-09T08:39:42;13.60;;;6.13;;
62268;SDS011;56517;51.634;5.566;2022-09-09T08:44:48;13.60;;;6.07;;
62268;SDS011;56517;51.634;5.566;2022-09-09T08:49:57;14.50;;;5.72;;
62268;SDS011;56517;51.634;5.566;2022-09-09T08:55:02;12.95;;;5.85;;
62268;SDS011;56517;51.634;5.566;2022-09-09T09:00:07;16.05;;;6.43;;
62268;SDS011;56517;51.634;5.566;2022-09-09T09:05:11;12.77;;;6.35;;
62268;SDS011;56517;51.634;5.566;2022-09-09T09:10:16;13.15;;;5.60;;
62268;SDS011;56517;51.634;5.566;2022-09-09T09:15:23;12.18;;;5.65;;
62268;SDS011;56517;51.634;5.566;2022-09-09T09:20:26;13.00;;;5.47;;
62268;SDS011;56517;51.634;5.566;2022-09-09T09:25:31;12.00;;;5.72;;
62268;SDS011;56517;51.634;5.566;2022-09-09T09:30:34;13.27;;;5.60;;
62268;SDS011;56517;51.634;5.566;2022-09-09T09:35:35;18.20;;;6.50;;
62268;SDS011;56517;51.634;5.566;2022-09-09T09:40:36;10.90;;;5.68;;
62268;SDS011;56517;51.634;5.566;2022-09-09T09:45:42;11.23;;;5.95;;
62268;SDS011;56517;51.634;5.566;2022-09-09T09:50:46;13.18;;;6.40;;
62268;SDS011;56517;51.634;5.566;2022-09-09T09:55:49;12.88;;;5.75;;
62268;SDS011;56517;51.634;5.566;2022-09-09T10:00:52;11.00;;;5.10;;
62268;SDS011;56517;51.634;5.566;2022-09-09T10:05:53;14.65;;;5.80;;
62268;SDS011;56517;51.634;5.566;2022-09-09T10:11:03;12.25;;;5.18;;
62268;SDS011;56517;51.634;5.566;2022-09-09T10:16:12;15.43;;;5.85;;
62268;SDS011;56517;51.634;5.566;2022-09-09T10:21:20;10.60;;;5.40;;
62268;SDS011;56517;51.634;5.566;2022-09-09T10:26:28;12.48;;;5.72;;
62268;SDS011;56517;51.634;5.566;2022-09-09T10:31:33;10.32;;;5.82;;
62268;SDS011;56517;51.634;5.566;2022-09-09T10:36:36;14.48;;;6.63;;
62268;SDS011;56517;51.634;5.566;2022-09-09T10:41:44;13.18;;;5.93;;
62268;SDS011;56517;51.634;5.566;2022-09-09T10:46:50;14.52;;;6.18;;
62268;SDS011;56517;51.634;5.566;2022-09-09T10:51:55;16.05;;;6.43;;
62268;SDS011;56517;51.634;5.566;2022-09-09T10:56:58;13.43;;;6.13;;
62268;SDS011;56517;51.634;5.566;2022-09-09T11:02:02;10.55;;;5.78;;
62268;SDS011;56517;51.634;5.566;2022-09-09T11:07:05;14.82;;;6.60;;
62268;SDS011;56517;51.634;5.566;2022-09-09T11:12:07;12.63;;;6.43;;
62268;SDS011;56517;51.634;5.566;2022-09-09T11:17:13;17.30;;;6.35;;
62268;SDS011;56517;51.634;5.566;2022-09-09T11:22:18;12.35;;;6.20;;
62268;SDS011;56517;51.634;5.566;2022-09-09T11:27:20;12.10;;;5.78;;
62268;SDS011;56517;51.634;5.566;2022-09-09T11:32:28;12.20;;;6.22;;
62268;SDS011;56517;51.634;5.566;2022-09-09T11:37:38;12.43;;;6.13;;
62268;SDS011;56517;51.634;5.566;2022-09-09T11:42:44;11.53;;;6.10;;
62268;SDS011;56517;51.634;5.566;2022-09-09T11:47:52;10.55;;;5.53;;
62268;SDS011;56517;51.634;5.566;2022-09-09T11:53:03;10.80;;;5.85;;
62268;SDS011;56517;51.634;5.566;2022-09-09T11:58:04;8.57;;;5.55;;
62268;SDS011;56517;51.634;5.566;2022-09-09T12:03:08;10.00;;;5.75;;
62268;SDS011;56517;51.634;5.566;2022-09-09T12:08:28;15.75;;;6.88;;
62268;SDS011;56517;51.634;5.566;2022-09-09T12:13:29;11.20;;;6.18;;
62268;SDS011;56517;51.634;5.566;2022-09-09T12:18:33;12.77;;;5.85;;
62268;SDS011;56517;51.634;5.566;2022-09-09T12:23:36;9.70;;;5.88;;
62268;SDS011;56517;51.634;5.566;2022-09-09T12:28:40;11.88;;;6.47;;
62268;SDS011;56517;51.634;5.566;2022-09-09T12:33:45;9.20;;;5.93;;
62268;SDS011;56517;51.634;5.566;2022-09-09T12:38:46;14.68;;;5.90;;
62268;SDS011;56517;51.634;5.566;2022-09-09T12:43:46;13.32;;;6.28;;
62268;SDS011;56517;51.634;5.566;2022-09-09T12:48:48;12.32;;;6.13;;
62268;SDS011;56517;51.634;5.566;2022-09-09T12:53:49;15.23;;;5.95;;
62268;SDS011;56517;51.634;5.566;2022-09-09T12:58:50;14.18;;;6.40;;
62268;SDS011;56517;51.634;5.566;2022-09-09T13:03:53;14.48;;;6.10;;
62268;SDS011;56517;51.634;5.566;2022-09-09T13:08:54;9.82;;;5.32;;
62268;SDS011;56517;51.634;5.566;2022-09-09T13:13:55;11.57;;;6.13;;
62268;SDS011;56517;51.634;5.566;2022-09-09T13:18:58;9.85;;;6.00;;
62268;SDS011;56517;51.634;5.566;2022-09-09T13:23:59;10.95;;;5.95;;
62268;SDS011;56517;51.634;5.566;2022-09-09T13:29:15;13.98;;;7.07;;
62268;SDS011;56517;51.634;5.566;2022-09-09T13:34:25;14.63;;;7.03;;
62268;SDS011;56517;51.634;5.566;2022-09-09T13:39:26;15.95;;;7.70;;
62268;SDS011;56517;51.634;5.566;2022-09-09T13:44:28;14.07;;;6.30;;
62268;SDS011;56517;51.634;5.566;2022-09-09T13:49:32;12.05;;;6.22;;
62268;SDS011;56517;51.634;5.566;2022-09-09T13:54:32;13.85;;;5.95;;
62268;SDS011;56517;51.634;5.566;2022-09-09T13:59:33;12.68;;;5.90;;
62268;SDS011;56517;51.634;5.566;2022-09-09T14:04:35;10.15;;;5.55;;
62268;SDS011;56517;51.634;5.566;2022-09-09T14:09:36;8.95;;;4.70;;
62268;SDS011;56517;51.634;5.566;2022-09-09T14:14:36;9.43;;;5.45;;
62268;SDS011;56517;51.634;5.566;2022-09-09T14:19:38;10.60;;;5.47;;
62268;SDS011;56517;51.634;5.566;2022-09-09T14:24:39;9.73;;;5.13;;
62268;SDS011;56517;51.634;5.566;2022-09-09T14:29:39;11.68;;;5.35;;
62268;SDS011;56517;51.634;5.566;2022-09-09T14:34:41;10.32;;;5.65;;
62268;SDS011;56517;51.634;5.566;2022-09-09T14:39:42;11.27;;;5.45;;
62268;SDS011;56517;51.634;5.566;2022-09-09T14:44:42;8.73;;;5.43;;
62268;SDS011;56517;51.634;5.566;2022-09-09T14:49:44;10.50;;;5.35;;
62268;SDS011;56517;51.634;5.566;2022-09-09T14:54:45;10.15;;;5.30;;
62268;SDS011;56517;51.634;5.566;2022-09-09T14:59:45;10.45;;;5.13;;
62268;SDS011;56517;51.634;5.566;2022-09-09T15:04:47;13.70;;;6.15;;
62268;SDS011;56517;51.634;5.566;2022-09-09T15:09:49;10.18;;;6.05;;
62268;SDS011;56517;51.634;5.566;2022-09-09T15:14:49;9.00;;;5.70;;
62268;SDS011;56517;51.634;5.566;2022-09-09T15:19:51;13.25;;;6.05;;
62268;SDS011;56517;51.634;5.566;2022-09-09T15:24:52;13.43;;;6.30;;
62268;SDS011;56517;51.634;5.566;2022-09-09T15:29:52;12.25;;;6.45;;
62268;SDS011;56517;51.634;5.566;2022-09-09T15:34:54;10.30;;;5.88;;
62268;SDS011;56517;51.634;5.566;2022-09-09T15:39:55;10.85;;;6.25;;
62268;SDS011;56517;51.634;5.566;2022-09-09T15:44:55;9.90;;;5.80;;
62268;SDS011;56517;51.634;5.566;2022-09-09T15:49:57;8.43;;;5.25;;
62268;SDS011;56517;51.634;5.566;2022-09-09T15:54:58;8.35;;;5.88;;
62268;SDS011;56517;51.634;5.566;2022-09-09T15:59:58;9.00;;;6.13;;
62268;SDS011;56517;51.634;5.566;2022-09-09T16:05:00;10.82;;;6.53;;
62268;SDS011;56517;51.634;5.566;2022-09-09T16:10:01;9.77;;;5.82;;
62268;SDS011;56517;51.634;5.566;2022-09-09T16:15:02;9.70;;;5.30;;
62268;SDS011;56517;51.634;5.566;2022-09-09T16:20:04;5.10;;;4.30;;
62268;SDS011;56517;51.634;5.566;2022-09-09T16:25:05;8.73;;;5.82;;
62268;SDS011;56517;51.634;5.566;2022-09-09T16:30:06;10.13;;;6.30;;
62268;SDS011;56517;51.634;5.566;2022-09-09T16:35:08;7.80;;;6.00;;
62268;SDS011;56517;51.634;5.566;2022-09-09T16:40:09;10.65;;;6.93;;
62268;SDS011;56517;51.634;5.566;2022-09-09T16:45:09;10.73;;;6.47;;
62268;SDS011;56517;51.634;5.566;2022-09-09T16:50:14;14.48;;;6.82;;
62268;SDS011;56517;51.634;5.566;2022-09-09T16:55:15;10.90;;;6.60;;
62268;SDS011;56517;51.634;5.566;2022-09-09T17:00:15;9.30;;;6.25;;
62268;SDS011;56517;51.634;5.566;2022-09-09T17:05:17;10.63;;;7.50;;
62268;SDS011;56517;51.634;5.566;2022-09-09T17:10:18;10.60;;;6.95;;
62268;SDS011;56517;51.634;5.566;2022-09-09T17:15:18;10.52;;;7.25;;
62268;SDS011;56517;51.634;5.566;2022-09-09T17:20:20;13.38;;;7.65;;
62268;SDS011;56517;51.634;5.566;2022-09-09T17:25:21;14.40;;;8.15;;
62268;SDS011;56517;51.634;5.566;2022-09-09T17:30:22;12.90;;;8.25;;
62268;SDS011;56517;51.634;5.566;2022-09-09T17:35:23;9.45;;;6.60;;
62268;SDS011;56517;51.634;5.566;2022-09-09T17:40:24;11.15;;;6.72;;
62268;SDS011;56517;51.634;5.566;2022-09-09T17:45:25;12.23;;;6.90;;
62268;SDS011;56517;51.634;5.566;2022-09-09T17:50:27;10.68;;;6.70;;
62268;SDS011;56517;51.634;5.566;2022-09-09T17:55:27;10.43;;;6.18;;
62268;SDS011;56517;51.634;5.566;2022-09-09T18:00:28;10.80;;;6.88;;
62268;SDS011;56517;51.634;5.566;2022-09-09T18:05:30;10.65;;;5.80;;
62268;SDS011;56517;51.634;5.566;2022-09-09T18:10:30;9.10;;;5.85;;
62268;SDS011;56517;51.634;5.566;2022-09-09T18:15:31;10.52;;;6.30;;
62268;SDS011;56517;51.634;5.566;2022-09-09T18:20:37;9.40;;;6.03;;
62268;SDS011;56517;51.634;5.566;2022-09-09T18:25:37;9.63;;;6.45;;
62268;SDS011;56517;51.634;5.566;2022-09-09T18:30:38;8.38;;;6.35;;
62268;SDS011;56517;51.634;5.566;2022-09-09T18:35:40;9.43;;;6.43;;
62268;SDS011;56517;51.634;5.566;2022-09-09T18:40:41;10.48;;;6.13;;
62268;SDS011;56517;51.634;5.566;2022-09-09T18:45:41;11.27;;;6.80;;
62268;SDS011;56517;51.634;5.566;2022-09-09T18:50:43;9.40;;;6.88;;
62268;SDS011;56517;51.634;5.566;2022-09-09T18:55:44;12.68;;;7.72;;
62268;SDS011;56517;51.634;5.566;2022-09-09T19:00:44;15.55;;;7.60;;
62268;SDS011;56517;51.634;5.566;2022-09-09T19:05:46;13.85;;;8.10;;
62268;SDS011;56517;51.634;5.566;2022-09-09T19:10:47;11.63;;;7.38;;
62268;SDS011;56517;51.634;5.566;2022-09-09T19:15:47;11.70;;;7.72;;
62268;SDS011;56517;51.634;5.566;2022-09-09T19:20:49;13.95;;;7.70;;
62268;SDS011;56517;51.634;5.566;2022-09-09T19:25:50;11.23;;;7.55;;
62268;SDS011;56517;51.634;5.566;2022-09-09T19:30:50;13.80;;;8.43;;
62268;SDS011;56517;51.634;5.566;2022-09-09T19:35:56;13.85;;;7.90;;
62268;SDS011;56517;51.634;5.566;2022-09-09T19:41:01;14.73;;;8.35;;
62268;SDS011;56517;51.634;5.566;2022-09-09T19:46:03;13.98;;;8.68;;
62268;SDS011;56517;51.634;5.566;2022-09-09T19:51:07;16.13;;;9.27;;
62268;SDS011;56517;51.634;5.566;2022-09-09T19:56:08;21.40;;;9.48;;
62268;SDS011;56517;51.634;5.566;2022-09-09T20:01:09;13.80;;;9.38;;
62268;SDS011;56517;51.634;5.566;2022-09-09T20:06:12;14.05;;;9.85;;
62268;SDS011;56517;51.634;5.566;2022-09-09T20:11:13;16.25;;;10.13;;
62268;SDS011;56517;51.634;5.566;2022-09-09T20:16:15;19.80;;;11.10;;
62268;SDS011;56517;51.634;5.566;2022-09-09T20:21:18;18.75;;;10.18;;
62268;SDS011;56517;51.634;5.566;2022-09-09T20:26:19;16.27;;;9.63;;
62268;SDS011;56517;51.634;5.566;2022-09-09T20:31:21;18.50;;;10.80;;
62268;SDS011;56517;51.634;5.566;2022-09-09T20:36:23;16.40;;;11.07;;
62268;SDS011;56517;51.634;5.566;2022-09-09T20:41:25;17.90;;;9.80;;
62268;SDS011;56517;51.634;5.566;2022-09-09T20:46:26;14.55;;;9.55;;
62268;SDS011;56517;51.634;5.566;2022-09-09T20:51:30;16.83;;;10.65;;
62268;SDS011;56517;51.634;5.566;2022-09-09T20:56:32;16.25;;;10.88;;
62268;SDS011;56517;51.634;5.566;2022-09-09T21:01:32;16.52;;;9.85;;
62268;SDS011;56517;51.634;5.566;2022-09-09T21:06:34;17.17;;;10.40;;
62268;SDS011;56517;51.634;5.566;2022-09-09T21:11:35;14.90;;;8.57;;
62268;SDS011;56517;51.634;5.566;2022-09-09T21:16:36;17.08;;;9.77;;
62268;SDS011;56517;51.634;5.566;2022-09-09T21:21:38;15.15;;;9.55;;
62268;SDS011;56517;51.634;5.566;2022-09-09T21:26:38;14.82;;;9.02;;
62268;SDS011;56517;51.634;5.566;2022-09-09T21:31:39;14.55;;;8.90;;
62268;SDS011;56517;51.634;5.566;2022-09-09T21:36:41;15.98;;;8.93;;
62268;SDS011;56517;51.634;5.566;2022-09-09T21:41:41;17.27;;;11.75;;
62268;SDS011;56517;51.634;5.566;2022-09-09T21:46:42;14.98;;;9.77;;
62268;SDS011;56517;51.634;5.566;2022-09-09T21:51:44;12.20;;;8.80;;
62268;SDS011;56517;51.634;5.566;2022-09-09T21:56:44;13.20;;;8.50;;
62268;SDS011;56517;51.634;5.566;2022-09-09T22:01:47;16.90;;;9.82;;
62268;SDS011;56517;51.634;5.566;2022-09-09T22:06:49;21.02;;;8.95;;
62268;SDS011;56517;51.634;5.566;2022-09-09T22:11:50;21.13;;;9.38;;
62268;SDS011;56517;51.634;5.566;2022-09-09T22:16:50;19.20;;;10.88;;
62268;SDS011;56517;51.634;5.566;2022-09-09T22:21:53;19.67;;;8.48;;
62268;SDS011;56517;51.634;5.566;2022-09-09T22:26:53;21.13;;;9.02;;
62268;SDS011;56517;51.634;5.566;2022-09-09T22:31:54;18.58;;;8.48;;
62268;SDS011;56517;51.634;5.566;2022-09-09T22:36:56;16.75;;;7.93;;
62268;SDS011;56517;51.634;5.566;2022-09-09T22:41:56;13.70;;;7.88;;
62268;SDS011;56517;51.634;5.566;2022-09-09T22:46:57;14.43;;;7.80;;
62268;SDS011;56517;51.634;5.566;2022-09-09T22:51:59;15.23;;;8.25;;
62268;SDS011;56517;51.634;5.566;2022-09-09T22:56:59;17.10;;;8.57;;
62268;SDS011;56517;51.634;5.566;2022-09-09T23:02:00;15.73;;;8.00;;
62268;SDS011;56517;51.634;5.566;2022-09-09T23:07:02;18.75;;;8.20;;
62268;SDS011;56517;51.634;5.566;2022-09-09T23:12:03;17.98;;;8.25;;
62268;SDS011;56517;51.634;5.566;2022-09-09T23:17:03;17.33;;;8.30;;
62268;SDS011;56517;51.634;5.566;2022-09-09T23:22:05;20.00;;;7.90;;
62268;SDS011;56517;51.634;5.566;2022-09-09T23:27:06;16.70;;;9.38;;
62268;SDS011;56517;51.634;5.566;2022-09-09T23:32:06;14.30;;;7.05;;
62268;SDS011;56517;51.634;5.566;2022-09-09T23:37:08;14.20;;;8.05;;
62268;SDS011;56517;51.634;5.566;2022-09-09T23:42:09;17.05;;;8.20;;
62268;SDS011;56517;51.634;5.566;2022-09-09T23:47:10;19.48;;;9.18;;
62268;SDS011;56517;51.634;5.566;2022-09-09T23:52:12;18.48;;;9.52;;
62268;SDS011;56517;51.634;5.566;2022-09-09T23:57:12;18.98;;;9.20;;
